Time;durP1;ratioP1;P1;durP2;ratioP2;P2;SDS_P1;SDS_P2;PMS_P1;PMS_P2;Temp;Humidity;BMP_temperature;BMP_pressure;BME280_temperature;BME280_humidity;BME280_pressure;Samples;Min_cycle;Max_cycle;Signal;HPM_P1;HPM_P2
2021/01/04 00:00:18;;;;;;;51.53;20.15;;;2.30;94.80;;;;;;5032459;28;20214;-74
2021/01/04 00:03:23;;;;;;;57.25;24.77;;;2.20;95.00;;;;;;5049003;28;20205;-74
2021/01/04 00:06:03;;;;;;;56.33;22.08;;;2.20;95.20;;;;;;4991881;28;20214;-74
2021/01/04 00:08:43;;;;;;;56.28;22.85;;;2.20;95.40;;;;;;5045576;28;20184;-72
2021/01/04 00:11:32;;;;;;;54.80;21.95;;;2.20;95.30;;;;;;5045323;28;20235;-71
2021/01/04 00:14:01;;;;;;;51.00;21.50;;;2.20;95.20;;;;;;5059403;28;20199;-72
2021/01/04 00:16:45;;;;;;;57.55;22.85;;;2.20;95.30;;;;;;5060943;28;20180;-73
2021/01/04 00:19:38;;;;;;;61.75;26.08;;;2.20;95.30;;;;;;5058914;28;20181;-73
2021/01/04 00:22:16;;;;;;;55.13;25.00;;;2.30;95.20;;;;;;5067051;28;20180;-71
2021/01/04 00:24:47;;;;;;;53.75;22.40;;;2.20;95.30;;;;;;5056155;28;20236;-71
2021/01/04 00:27:30;;;;;;;61.72;22.63;;;2.30;95.20;;;;;;5046081;28;20192;-73
2021/01/04 00:30:01;;;;;;;55.83;23.53;;;2.30;95.10;;;;;;5052586;28;20184;-73
2021/01/04 00:32:33;;;;;;;56.92;22.70;;;2.30;95.10;;;;;;5059099;28;20573;-72
2021/01/04 00:35:06;;;;;;;56.53;24.25;;;2.40;95.10;;;;;;5049698;28;20687;-72
2021/01/04 00:37:50;;;;;;;55.85;23.20;;;2.40;95.20;;;;;;5050554;28;20188;-72
2021/01/04 00:40:32;;;;;;;60.22;26.45;;;2.40;95.10;;;;;;5045619;28;20180;-72
2021/01/04 00:42:58;;;;;;;62.53;24.30;;;2.40;95.10;;;;;;5056559;28;20529;-72
2021/01/04 00:45:46;;;;;;;57.35;24.55;;;2.40;95.20;;;;;;5063512;28;20188;-72
2021/01/04 00:48:32;;;;;;;65.07;25.42;;;2.40;95.20;;;;;;5036753;28;20212;-73
2021/01/04 00:51:35;;;;;;;61.58;26.30;;;2.40;94.90;;;;;;5051415;28;20215;-72
2021/01/04 00:54:24;;;;;;;56.90;23.98;;;2.40;94.90;;;;;;5054723;28;20558;-72
2021/01/04 00:57:22;;;;;;;51.38;22.92;;;2.40;95.00;;;;;;5043351;28;20220;-72
2021/01/04 01:00:01;;;;;;;53.47;22.85;;;2.40;95.10;;;;;;4958512;28;20203;-72
2021/01/04 01:02:35;;;;;;;58.97;24.55;;;2.40;94.90;;;;;;4965772;28;20191;-72
2021/01/04 01:05:16;;;;;;;58.50;24.13;;;2.40;94.80;;;;;;4982944;28;20383;-72
2021/01/04 01:08:10;;;;;;;59.78;24.35;;;2.40;94.90;;;;;;4971913;28;20190;-73
2021/01/04 01:10:43;;;;;;;59.28;25.05;;;2.40;95.00;;;;;;4970183;28;20219;-73
2021/01/04 01:13:21;;;;;;;56.00;24.92;;;2.30;95.10;;;;;;4953336;28;20235;-73
2021/01/04 01:16:07;;;;;;;70.45;27.50;;;2.40;95.20;;;;;;4976293;28;20195;-73
2021/01/04 01:18:38;;;;;;;69.47;28.43;;;2.30;95.20;;;;;;4973111;28;20191;-72
2021/01/04 01:21:08;;;;;;;64.63;24.20;;;2.40;95.40;;;;;;4981001;28;20436;-73
2021/01/04 01:23:37;;;;;;;57.47;25.55;;;2.40;95.60;;;;;;4958658;28;20705;-73
2021/01/04 01:26:08;;;;;;;64.40;27.93;;;2.40;95.70;;;;;;4960263;28;20226;-73
2021/01/04 01:28:55;;;;;;;58.17;24.92;;;2.40;95.70;;;;;;4988118;28;20437;-72
2021/01/04 01:31:32;;;;;;;62.20;25.63;;;2.50;95.40;;;;;;4973500;28;20246;-73
2021/01/04 01:34:22;;;;;;;59.25;25.25;;;2.50;95.20;;;;;;4952493;28;20258;-72
2021/01/04 01:37:07;;;;;;;62.53;25.95;;;2.50;95.00;;;;;;5054883;28;20193;-73
2021/01/04 01:39:56;;;;;;;56.63;25.05;;;2.60;94.90;;;;;;5054875;28;20492;-73
2021/01/04 01:42:56;;;;;;;64.75;25.17;;;2.60;94.80;;;;;;5048183;28;20269;-72
2021/01/04 01:45:49;;;;;;;57.47;24.17;;;2.60;94.70;;;;;;5047719;28;20196;-71
2021/01/04 01:48:25;;;;;;;63.40;24.48;;;2.50;94.70;;;;;;5049434;28;20192;-71
2021/01/04 01:50:58;;;;;;;67.07;25.80;;;2.50;94.70;;;;;;5049701;28;20211;-71
2021/01/04 01:53:46;;;;;;;67.85;25.50;;;2.50;94.80;;;;;;5058752;28;20210;-72
2021/01/04 01:56:27;;;;;;;61.47;25.08;;;2.50;94.80;;;;;;5048724;28;20203;-71
2021/01/04 01:59:17;;;;;;;61.03;25.65;;;2.40;95.00;;;;;;5062507;28;20287;-72
2021/01/04 02:01:58;;;;;;;61.15;24.23;;;2.50;95.20;;;;;;5049508;28;20517;-71
2021/01/04 02:04:39;;;;;;;67.10;26.40;;;2.60;95.30;;;;;;5055043;28;20659;-71
2021/01/04 02:07:24;;;;;;;62.15;25.33;;;2.60;95.00;;;;;;5067461;28;20190;-72
2021/01/04 02:09:58;;;;;;;59.83;25.85;;;2.60;94.70;;;;;;5051687;28;20221;-72
2021/01/04 02:12:52;;;;;;;59.50;24.35;;;2.60;94.60;;;;;;5071506;28;20277;-73
2021/01/04 02:15:23;;;;;;;64.05;25.95;;;2.60;94.70;;;;;;4975623;28;20578;-72
2021/01/04 02:18:25;;;;;;;56.20;24.90;;;2.60;94.70;;;;;;4972650;28;20904;-73
2021/01/04 02:21:21;;;;;;;64.22;25.40;;;2.50;94.80;;;;;;4947293;28;20209;-73
2021/01/04 02:24:04;;;;;;;69.78;26.52;;;2.50;95.00;;;;;;4990772;28;20349;-73
2021/01/04 02:26:30;;;;;;;56.33;26.33;;;2.50;95.10;;;;;;4974825;28;20209;-73
2021/01/04 02:29:19;;;;;;;57.63;25.83;;;2.50;95.20;;;;;;4980072;28;20367;-73
2021/01/04 02:31:47;;;;;;;59.75;24.63;;;2.50;95.10;;;;;;4971939;28;20211;-73
2021/01/04 02:34:16;;;;;;;61.70;25.75;;;2.50;95.10;;;;;;4969887;28;20305;-72
2021/01/04 02:36:46;;;;;;;63.67;27.03;;;2.50;95.10;;;;;;4970850;28;20689;-72
2021/01/04 02:39:28;;;;;;;62.95;27.80;;;2.60;95.00;;;;;;4970532;28;21220;-72
2021/01/04 02:41:56;;;;;;;60.97;23.42;;;2.60;95.00;;;;;;4983076;28;20221;-74
2021/01/04 02:44:24;;;;;;;64.72;25.70;;;2.60;95.00;;;;;;4953406;28;20211;-72
2021/01/04 02:47:15;;;;;;;58.92;24.20;;;2.60;94.90;;;;;;4954816;28;20529;-72
2021/01/04 02:49:59;;;;;;;56.03;24.80;;;2.60;94.80;;;;;;4932123;29;20211;-73
2021/01/04 02:53:09;;;;;;;59.17;23.45;;;2.60;94.80;;;;;;4970511;28;20285;-73
2021/01/04 02:56:03;;;;;;;62.00;23.70;;;2.60;94.80;;;;;;4995158;28;20279;-73
2021/01/04 02:58:50;;;;;;;57.30;25.00;;;2.60;94.70;;;;;;5009966;28;20261;-74
2021/01/04 03:01:24;;;;;;;55.67;24.70;;;2.60;94.70;;;;;;5012279;28;20229;-73
2021/01/04 03:03:50;;;;;;;52.33;25.00;;;2.50;94.70;;;;;;4994112;28;20232;-73
2021/01/04 03:06:24;;;;;;;69.03;27.05;;;2.60;94.70;;;;;;4993502;28;20480;-74
2021/01/04 03:08:50;;;;;;;57.60;24.70;;;2.60;94.60;;;;;;5009744;28;20212;-73
2021/01/04 03:11:17;;;;;;;55.70;24.23;;;2.60;94.60;;;;;;5009744;28;21034;-73
2021/01/04 03:14:09;;;;;;;65.95;25.50;;;2.60;94.60;;;;;;4993256;28;20669;-74
2021/01/04 03:17:13;;;;;;;59.70;23.25;;;2.60;94.50;;;;;;4993444;28;20213;-73
2021/01/04 03:19:41;;;;;;;59.10;24.48;;;2.60;94.40;;;;;;4983076;28;20193;-74
2021/01/04 03:22:12;;;;;;;56.70;25.50;;;2.60;94.40;;;;;;5008848;28;20915;-74
2021/01/04 03:24:38;;;;;;;52.05;23.75;;;2.60;94.40;;;;;;4992980;28;20206;-75
2021/01/04 03:27:10;;;;;;;59.67;23.40;;;2.60;94.40;;;;;;5042545;28;20208;-73
2021/01/04 03:29:35;;;;;;;58.70;23.37;;;2.60;94.50;;;;;;5056968;28;20926;-73
2021/01/04 03:32:02;;;;;;;64.53;24.77;;;2.60;94.50;;;;;;5060554;28;20474;-72
2021/01/04 03:34:28;;;;;;;51.63;24.05;;;2.50;94.50;;;;;;5059018;28;20219;-73
2021/01/04 03:36:53;;;;;;;56.57;25.10;;;2.50;94.60;;;;;;5065045;28;20203;-73
2021/01/04 03:39:19;;;;;;;63.93;26.70;;;2.60;94.50;;;;;;5077591;28;20187;-75
2021/01/04 03:41:47;;;;;;;63.23;26.07;;;2.60;94.50;;;;;;5057678;28;20192;-75
2021/01/04 03:44:13;;;;;;;62.40;25.92;;;2.60;94.60;;;;;;5071010;28;20223;-72
2021/01/04 03:46:48;;;;;;;57.20;22.30;;;2.60;94.50;;;;;;5072394;28;20234;-73
2021/01/04 03:49:14;;;;;;;59.65;24.48;;;2.60;94.40;;;;;;5056326;28;20517;-72
2021/01/04 03:51:39;;;;;;;53.27;25.10;;;2.70;94.10;;;;;;5059371;28;20291;-72
2021/01/04 03:54:05;;;;;;;63.93;27.10;;;2.60;94.20;;;;;;5069184;28;20742;-72
2021/01/04 03:56:30;;;;;;;63.23;27.13;;;2.40;94.60;;;;;;5050774;28;20188;-73
2021/01/04 03:58:56;;;;;;;57.03;25.30;;;2.30;95.10;;;;;;5063944;28;20184;-72
2021/01/04 04:01:22;;;;;;;56.70;25.47;;;2.20;95.70;;;;;;5049744;28;20185;-72
2021/01/04 04:03:48;;;;;;;59.23;26.07;;;2.10;96.20;;;;;;5052080;28;20302;-72
2021/01/04 04:06:13;;;;;;;58.93;25.27;;;2.20;96.50;;;;;;5069167;28;20188;-73
2021/01/04 04:08:40;;;;;;;63.10;26.07;;;2.20;96.50;;;;;;5055702;28;20279;-71
2021/01/04 04:11:06;;;;;;;59.97;25.27;;;2.20;96.50;;;;;;5051602;28;20223;-74
2021/01/04 04:13:32;;;;;;;57.15;26.10;;;2.20;96.50;;;;;;5051896;28;20238;-73
2021/01/04 04:15:58;;;;;;;63.27;26.37;;;2.20;96.50;;;;;;5051649;28;20169;-74
2021/01/04 04:18:24;;;;;;;61.50;27.65;;;2.20;96.50;;;;;;5052041;28;20185;-73
2021/01/04 04:20:50;;;;;;;66.83;27.03;;;2.30;96.50;;;;;;5050270;28;20207;-75
2021/01/04 04:23:16;;;;;;;63.67;26.20;;;2.20;96.40;;;;;;5067120;28;20204;-74
2021/01/04 04:25:42;;;;;;;60.87;27.37;;;2.20;96.30;;;;;;5058680;28;20596;-76
2021/01/04 04:28:07;;;;;;;65.43;27.77;;;2.20;96.30;;;;;;5051068;28;20180;-71
2021/01/04 04:30:33;;;;;;;63.77;26.27;;;2.20;96.20;;;;;;5050635;28;20445;-72
2021/01/04 04:32:59;;;;;;;63.67;25.50;;;2.20;96.20;;;;;;5063134;28;20198;-71
2021/01/04 04:35:27;;;;;;;59.55;25.85;;;2.20;96.20;;;;;;5049826;28;20187;-74
2021/01/04 04:37:52;;;;;;;69.43;27.70;;;2.20;96.00;;;;;;5051087;28;20193;-72
2021/01/04 04:40:25;;;;;;;62.83;25.53;;;2.20;95.90;;;;;;5051841;28;20207;-73
2021/01/04 04:42:56;;;;;;;70.97;26.58;;;2.20;96.00;;;;;;5050369;28;20523;-73
2021/01/04 04:45:22;;;;;;;59.28;25.10;;;2.20;96.00;;;;;;5058149;28;20346;-72
2021/01/04 04:48:21;;;;;;;66.85;28.10;;;2.20;96.00;;;;;;5052646;28;20203;-73
2021/01/04 04:51:08;;;;;;;55.45;25.60;;;2.20;96.00;;;;;;5049944;28;20283;-73
2021/01/04 04:53:46;;;;;;;58.78;26.33;;;2.20;96.00;;;;;;5050018;28;20587;-73
2021/01/04 04:56:12;;;;;;;66.70;26.73;;;2.20;95.80;;;;;;5047869;28;20184;-73
2021/01/04 04:58:59;;;;;;;59.67;25.43;;;2.20;95.70;;;;;;5048347;28;20555;-72
2021/01/04 05:01:44;;;;;;;56.47;23.20;;;2.20;95.70;;;;;;5038475;28;20673;-72
2021/01/04 05:04:19;;;;;;;62.85;26.00;;;2.20;95.60;;;;;;5049357;28;20208;-73
2021/01/04 05:06:49;;;;;;;55.30;23.20;;;2.20;95.70;;;;;;5048579;28;20198;-74
2021/01/04 05:09:30;;;;;;;58.72;26.65;;;2.30;95.60;;;;;;5047837;28;20231;-73
2021/01/04 05:12:06;;;;;;;79.35;28.95;;;2.40;95.40;;;;;;5048956;28;20196;-73
2021/01/04 05:14:36;;;;;;;57.00;24.65;;;2.40;95.40;;;;;;5057518;28;20211;-72
2021/01/04 05:17:41;;;;;;;58.15;26.92;;;2.30;95.60;;;;;;5068203;28;20607;-71
2021/01/04 05:20:30;;;;;;;57.75;25.63;;;2.30;95.70;;;;;;5053622;28;20173;-71
2021/01/04 05:23:17;;;;;;;62.67;26.52;;;2.40;95.70;;;;;;5048970;28;20180;-71
2021/01/04 05:25:48;;;;;;;55.08;25.25;;;2.40;95.60;;;;;;5036673;28;20184;-72
2021/01/04 05:28:38;;;;;;;54.25;24.40;;;2.40;95.30;;;;;;5046970;28;20911;-71
2021/01/04 05:31:23;;;;;;;50.13;24.25;;;2.40;95.30;;;;;;5047810;28;20208;-72
2021/01/04 05:33:51;;;;;;;60.35;25.75;;;2.50;95.20;;;;;;5048302;28;20208;-73
2021/01/04 05:36:29;;;;;;;50.97;24.25;;;2.50;95.10;;;;;;5046695;28;20180;-72
2021/01/04 05:39:33;;;;;;;57.45;25.23;;;2.50;94.90;;;;;;5047214;28;20272;-72
2021/01/04 05:42:16;;;;;;;58.45;25.25;;;2.50;95.00;;;;;;5024432;28;20663;-72
2021/01/04 05:44:59;;;;;;;50.78;24.65;;;2.50;95.00;;;;;;5049845;28;20290;-72
2021/01/04 05:47:54;;;;;;;53.35;23.73;;;2.50;95.00;;;;;;5055643;28;20270;-71
2021/01/04 05:50:40;;;;;;;65.17;26.40;;;2.50;95.00;;;;;;5039755;28;20273;-72
2021/01/04 05:53:07;;;;;;;59.00;25.50;;;2.40;95.00;;;;;;5047290;28;20718;-72
2021/01/04 05:55:32;;;;;;;55.45;25.27;;;2.40;95.00;;;;;;5047420;28;20543;-72
2021/01/04 05:58:16;;;;;;;59.37;24.17;;;2.40;95.10;;;;;;5060372;28;20188;-71
2021/01/04 06:00:42;;;;;;;66.15;26.17;;;2.40;95.10;;;;;;5063782;28;20199;-73
2021/01/04 06:03:14;;;;;;;64.63;25.70;;;2.40;95.20;;;;;;5068810;28;20563;-72
2021/01/04 06:05:40;;;;;;;53.75;23.92;;;2.30;95.30;;;;;;5064977;28;20283;-73
2021/01/04 06:08:17;;;;;;;62.10;25.92;;;2.30;95.40;;;;;;5048362;28;20213;-73
2021/01/04 06:10:43;;;;;;;62.53;25.25;;;2.20;95.40;;;;;;5047205;28;20254;-72
2021/01/04 06:13:14;;;;;;;57.80;25.93;;;2.10;95.50;;;;;;5048476;28;20201;-72
2021/01/04 06:15:41;;;;;;;59.25;25.60;;;2.10;95.80;;;;;;5047774;28;20210;-72
2021/01/04 06:18:11;;;;;;;57.65;24.15;;;2.20;96.20;;;;;;5049892;28;20673;-72
2021/01/04 06:20:43;;;;;;;54.92;25.80;;;2.20;96.20;;;;;;5048194;28;20271;-72
2021/01/04 06:23:15;;;;;;;59.78;25.50;;;2.20;96.30;;;;;;5053498;28;20245;-73
2021/01/04 06:25:42;;;;;;;59.25;26.52;;;2.20;96.40;;;;;;5061282;28;20210;-72
2021/01/04 06:28:08;;;;;;;63.78;26.63;;;2.20;96.40;;;;;;5050459;28;20184;-72
2021/01/04 06:30:40;;;;;;;61.70;26.45;;;2.10;96.50;;;;;;5060361;28;20180;-71
2021/01/04 06:33:11;;;;;;;69.80;27.00;;;2.00;96.60;;;;;;5049696;28;20220;-71
2021/01/04 06:35:37;;;;;;;63.97;27.30;;;2.10;96.80;;;;;;5049851;28;20185;-71
2021/01/04 06:38:21;;;;;;;62.53;26.10;;;2.10;96.60;;;;;;5050367;28;20186;-71
2021/01/04 06:40:47;;;;;;;66.28;26.85;;;2.20;96.60;;;;;;5060400;28;20506;-72
2021/01/04 06:43:26;;;;;;;56.38;23.15;;;2.20;96.60;;;;;;5063188;28;20270;-72
2021/01/04 06:46:10;;;;;;;60.20;24.00;;;2.30;96.40;;;;;;5047706;28;20276;-71
2021/01/04 06:49:13;;;;;;;66.47;26.40;;;2.30;96.10;;;;;;5048822;28;20209;-71
2021/01/04 06:52:00;;;;;;;56.50;23.35;;;2.30;95.80;;;;;;4975124;28;20710;-71
2021/01/04 06:54:53;;;;;;;58.83;23.83;;;2.30;95.60;;;;;;4951107;28;20215;-71
2021/01/04 06:57:41;;;;;;;62.10;25.30;;;2.30;95.40;;;;;;4962039;28;20688;-70
2021/01/04 07:00:47;;;;;;;57.13;24.52;;;2.30;95.30;;;;;;4988235;28;20229;-71
2021/01/04 07:03:32;;;;;;;67.50;27.67;;;2.30;95.30;;;;;;4908595;28;20664;-71
2021/01/04 07:06:35;;;;;;;60.60;26.15;;;2.20;95.50;;;;;;4983433;28;20178;-72
2021/01/04 07:09:48;;;;;;;62.08;24.02;;;2.20;95.60;;;;;;4976934;28;20306;-71
2021/01/04 07:12:38;;;;;;;59.72;24.42;;;2.30;96.00;;;;;;4930985;28;20227;-72
2021/01/04 07:15:28;;;;;;;63.33;24.83;;;2.30;95.90;;;;;;4969666;28;20301;-71
2021/01/04 07:18:09;;;;;;;60.75;26.05;;;2.30;95.60;;;;;;4977774;28;20207;-71
2021/01/04 07:20:40;;;;;;;51.58;24.33;;;2.30;95.70;;;;;;4983735;28;20186;-73
2021/01/04 07:23:20;;;;;;;63.58;25.38;;;2.30;95.90;;;;;;4989768;28;20214;-74
2021/01/04 07:26:07;;;;;;;54.38;26.63;;;2.40;95.90;;;;;;4989401;28;20198;-73
2021/01/04 07:28:58;;;;;;;56.70;24.23;;;2.40;95.80;;;;;;5038022;28;20216;-72
2021/01/04 07:31:37;;;;;;;58.38;26.58;;;2.30;95.80;;;;;;5045093;28;20239;-74
2021/01/04 07:34:03;;;;;;;61.30;26.67;;;2.20;96.10;;;;;;5069199;28;20215;-72
2021/01/04 07:36:38;;;;;;;62.40;26.33;;;2.30;96.30;;;;;;5054687;28;20551;-73
2021/01/04 07:39:29;;;;;;;61.75;26.35;;;2.20;96.30;;;;;;5049812;28;20203;-73
2021/01/04 07:42:26;;;;;;;62.78;25.35;;;2.30;96.40;;;;;;5038929;28;20231;-74
2021/01/04 07:45:16;;;;;;;61.75;25.63;;;2.30;96.30;;;;;;5049587;28;20295;-74
2021/01/04 07:48:11;;;;;;;51.58;23.45;;;2.30;96.10;;;;;;5051218;28;20180;-74
2021/01/04 07:50:57;;;;;;;66.40;26.48;;;2.30;96.00;;;;;;5059435;28;20195;-72
2021/01/04 07:53:25;;;;;;;63.13;25.63;;;2.30;96.20;;;;;;5039960;28;20205;-73
2021/01/04 07:56:27;;;;;;;61.88;25.65;;;2.30;96.30;;;;;;5050890;28;20258;-73
2021/01/04 07:59:24;;;;;;;58.80;25.33;;;2.30;96.40;;;;;;5051112;28;20179;-73
2021/01/04 08:02:23;;;;;;;65.70;26.02;;;2.30;96.40;;;;;;5049460;28;20184;-73
2021/01/04 08:04:57;;;;;;;64.18;27.17;;;2.20;96.50;;;;;;5043246;28;20205;-72
2021/01/04 08:07:57;;;;;;;58.55;25.85;;;2.30;96.60;;;;;;5066817;28;20213;-72
2021/01/04 08:10:58;;;;;;;65.90;26.33;;;2.30;96.60;;;;;;5057357;28;20196;-73
2021/01/04 08:13:48;;;;;;;58.83;26.52;;;2.40;96.50;;;;;;5060684;28;20239;-73
2021/01/04 08:16:21;;;;;;;56.30;24.42;;;2.40;96.50;;;;;;5063412;28;20176;-74
2021/01/04 08:18:55;;;;;;;60.80;24.92;;;2.40;96.30;;;;;;5069116;28;20180;-72
2021/01/04 08:21:32;;;;;;;61.13;25.98;;;2.40;96.30;;;;;;5050678;28;20188;-72
2021/01/04 08:24:04;;;;;;;59.53;24.85;;;2.40;96.30;;;;;;5038958;28;20770;-72
2021/01/04 08:26:50;;;;;;;52.38;22.63;;;2.40;96.20;;;;;;5050457;28;20208;-74
2021/01/04 08:29:22;;;;;;;54.20;23.42;;;2.40;96.20;;;;;;5050725;28;20212;-72
2021/01/04 08:32:33;;;;;;;55.20;23.63;;;2.40;96.10;;;;;;5050379;28;20700;-73
2021/01/04 08:35:34;;;;;;;53.60;22.52;;;2.40;95.70;;;;;;5052544;28;20275;-73
2021/01/04 08:38:30;;;;;;;48.50;22.75;;;2.30;95.80;;;;;;5063666;28;20187;-74
2021/01/04 08:41:04;;;;;;;54.42;24.48;;;2.40;95.90;;;;;;5046046;28;20195;-73
2021/01/04 08:43:51;;;;;;;62.78;25.67;;;2.30;95.80;;;;;;5043596;28;20526;-74
2021/01/04 08:46:23;;;;;;;66.88;23.80;;;2.30;96.00;;;;;;5052119;28;20541;-74
2021/01/04 08:48:50;;;;;;;61.58;27.10;;;2.40;96.30;;;;;;5051148;28;20189;-74
2021/01/04 08:51:26;;;;;;;57.28;23.42;;;2.50;96.40;;;;;;5064761;28;20258;-74
2021/01/04 08:54:11;;;;;;;60.05;24.58;;;2.50;96.10;;;;;;5064718;28;20605;-74
2021/01/04 08:56:46;;;;;;;58.00;24.08;;;2.60;96.00;;;;;;5048194;28;20176;-73
2021/01/04 08:59:26;;;;;;;53.30;23.40;;;2.60;95.50;;;;;;5063537;28;20183;-74
2021/01/04 09:01:58;;;;;;;61.55;25.48;;;2.60;95.40;;;;;;5059259;28;20337;-74
2021/01/04 09:04:33;;;;;;;63.67;24.98;;;2.60;95.40;;;;;;5051044;28;20209;-74
2021/01/04 09:07:07;;;;;;;63.40;25.17;;;2.50;95.10;;;;;;5056512;28;20222;-74
2021/01/04 09:10:16;;;;;;;51.65;23.02;;;2.50;95.40;;;;;;5047655;28;20362;-75
2021/01/04 09:12:46;;;;;;;58.80;24.67;;;2.50;95.60;;;;;;4941990;28;20230;-74
2021/01/04 09:15:32;;;;;;;52.90;23.55;;;2.50;95.70;;;;;;4981116;28;20615;-75
2021/01/04 09:18:01;;;;;;;59.65;26.33;;;2.50;95.50;;;;;;4968640;28;20203;-74
2021/01/04 09:20:46;;;;;;;54.35;24.52;;;2.50;95.60;;;;;;4957625;28;20221;-74
2021/01/04 09:23:21;;;;;;;64.50;25.15;;;2.60;95.70;;;;;;4971384;28;20765;-74
2021/01/04 09:26:33;;;;;;;57.72;25.17;;;2.50;95.50;;;;;;4977500;28;20685;-75
2021/01/04 09:29:24;;;;;;;52.08;24.77;;;2.60;95.30;;;;;;4923803;29;20731;-74
2021/01/04 09:31:56;;;;;;;58.13;24.92;;;2.60;95.20;;;;;;4904033;29;20233;-74
2021/01/04 09:34:22;;;;;;;51.13;23.75;;;2.70;95.30;;;;;;4921481;29;20232;-75
2021/01/04 09:36:48;;;;;;;52.90;23.00;;;2.70;95.10;;;;;;4917826;29;20189;-74
2021/01/04 09:39:17;;;;;;;51.63;24.20;;;2.70;94.70;;;;;;4918475;29;20891;-74
2021/01/04 09:41:43;;;;;;;51.55;23.02;;;2.70;94.70;;;;;;4917817;29;20441;-74
2021/01/04 09:44:14;;;;;;;57.93;25.33;;;2.70;94.90;;;;;;4918829;29;20261;-76
2021/01/04 09:46:54;;;;;;;57.85;24.48;;;2.70;94.90;;;;;;4902394;29;20432;-75
2021/01/04 09:49:27;;;;;;;61.17;25.37;;;2.70;94.90;;;;;;4971426;28;20217;-76
2021/01/04 09:52:18;;;;;;;52.23;23.90;;;2.70;95.00;;;;;;4968001;28;20561;-75
2021/01/04 09:54:55;;;;;;;58.23;26.23;;;2.60;95.00;;;;;;4973935;28;20529;-75
2021/01/04 09:57:22;;;;;;;59.65;25.45;;;2.60;95.30;;;;;;4968689;28;20441;-74
2021/01/04 09:59:50;;;;;;;58.60;26.13;;;2.60;95.30;;;;;;4977254;28;20270;-75
2021/01/04 10:02:18;;;;;;;66.18;26.10;;;2.60;95.30;;;;;;4984306;28;20205;-75
2021/01/04 10:04:45;;;;;;;58.35;25.73;;;2.70;95.40;;;;;;5021262;28;20216;-74
2021/01/04 10:07:21;;;;;;;52.58;23.08;;;2.70;95.40;;;;;;5062670;28;20558;-75
2021/01/04 10:09:52;;;;;;;53.63;23.83;;;2.80;95.20;;;;;;5049771;28;20881;-74
2021/01/04 10:12:23;;;;;;;56.92;24.27;;;2.80;94.90;;;;;;5049012;28;20208;-74
2021/01/04 10:14:52;;;;;;;56.63;24.25;;;2.80;94.90;;;;;;5061892;28;20279;-75
2021/01/04 10:17:22;;;;;;;60.45;24.38;;;2.80;94.80;;;;;;5062854;28;20185;-75
2021/01/04 10:19:58;;;;;;;56.13;25.50;;;2.90;94.80;;;;;;5049147;28;20256;-77
2021/01/04 10:22:41;;;;;;;57.38;22.65;;;2.90;94.70;;;;;;5038239;28;20306;-75
2021/01/04 10:25:27;;;;;;;53.95;24.75;;;3.00;94.60;;;;;;5061087;28;20691;-75
2021/01/04 10:27:56;;;;;;;55.83;23.90;;;3.00;94.30;;;;;;5060169;28;20191;-74
2021/01/04 10:30:25;;;;;;;51.37;24.37;;;3.00;94.10;;;;;;5058535;28;20229;-75
2021/01/04 10:33:18;;;;;;;52.67;25.02;;;2.90;94.10;;;;;;5070018;28;20996;-75
2021/01/04 10:35:44;;;;;;;47.10;23.03;;;2.90;94.00;;;;;;5052278;28;20176;-75
2021/01/04 10:38:18;;;;;;;55.70;22.80;;;2.90;94.00;;;;;;5052792;28;20423;-74
2021/01/04 10:40:48;;;;;;;51.30;22.73;;;3.00;94.10;;;;;;5064757;28;20179;-74
2021/01/04 10:43:23;;;;;;;58.57;23.27;;;3.00;94.10;;;;;;5053617;28;20466;-75
2021/01/04 10:45:50;;;;;;;45.58;22.02;;;3.00;93.80;;;;;;5066107;28;20497;-74
2021/01/04 10:48:27;;;;;;;52.25;22.02;;;3.00;93.60;;;;;;5053040;28;20184;-74
2021/01/04 10:50:57;;;;;;;48.22;22.92;;;3.00;93.30;;;;;;5053420;28;20202;-75
2021/01/04 10:53:28;;;;;;;57.38;22.70;;;3.00;93.20;;;;;;5055692;28;20208;-74
2021/01/04 10:56:14;;;;;;;49.22;22.17;;;3.10;92.70;;;;;;5068903;28;20206;-75
2021/01/04 10:58:41;;;;;;;50.53;20.92;;;3.10;92.40;;;;;;5045836;28;20193;-73
2021/01/04 11:01:12;;;;;;;50.63;21.63;;;3.10;92.10;;;;;;5052211;28;20187;-74
2021/01/04 11:03:45;;;;;;;46.53;20.63;;;3.10;91.70;;;;;;5051476;28;20538;-74
2021/01/04 11:06:30;;;;;;;45.28;20.85;;;3.10;91.40;;;;;;5059023;28;20441;-74
2021/01/04 11:08:57;;;;;;;47.65;20.10;;;3.20;91.30;;;;;;5070515;28;20198;-75
2021/01/04 11:11:54;;;;;;;49.00;21.23;;;3.20;91.10;;;;;;5071941;28;20203;-74
2021/01/04 11:14:22;;;;;;;43.50;20.47;;;3.20;90.70;;;;;;5025434;28;20215;-74
2021/01/04 11:16:49;;;;;;;42.90;19.53;;;3.20;90.90;;;;;;5072197;28;20500;-74
2021/01/04 11:19:33;;;;;;;35.10;19.03;;;3.30;91.00;;;;;;5064481;28;20877;-74
2021/01/04 11:22:09;;;;;;;41.07;19.70;;;3.30;91.00;;;;;;5060189;28;20437;-74
2021/01/04 11:24:35;;;;;;;51.90;21.30;;;3.50;90.80;;;;;;5064035;28;20442;-75
2021/01/04 11:27:01;;;;;;;48.05;20.90;;;3.50;90.10;;;;;;5058258;28;20942;-75
2021/01/04 11:29:26;;;;;;;45.13;19.73;;;3.40;89.70;;;;;;5072558;28;20245;-77
2021/01/04 11:31:52;;;;;;;49.93;20.87;;;3.40;89.70;;;;;;5058301;28;20257;-75
2021/01/04 11:34:18;;;;;;;43.80;19.20;;;3.50;89.60;;;;;;5070433;28;20223;-74
2021/01/04 11:36:43;;;;;;;39.10;18.30;;;3.50;88.60;;;;;;5058692;28;20176;-76
2021/01/04 11:39:09;;;;;;;42.33;18.37;;;3.40;88.00;;;;;;5073268;28;20183;-75
2021/01/04 11:41:35;;;;;;;47.53;18.97;;;3.30;88.30;;;;;;5071126;28;20631;-74
2021/01/04 11:44:01;;;;;;;39.07;17.93;;;3.30;88.60;;;;;;5066854;28;20218;-74
2021/01/04 11:46:26;;;;;;;39.03;17.53;;;3.30;88.10;;;;;;5071754;28;20203;-74
2021/01/04 11:48:52;;;;;;;46.23;19.10;;;3.20;87.60;;;;;;5062933;28;20234;-76
2021/01/04 11:51:20;;;;;;;41.73;16.87;;;3.30;88.10;;;;;;5058538;28;20286;-75
2021/01/04 11:53:49;;;;;;;37.00;16.10;;;3.30;87.60;;;;;;5073261;28;20192;-75
2021/01/04 11:56:17;;;;;;;32.13;14.20;;;3.30;86.20;;;;;;5064132;28;20197;-76
2021/01/04 11:58:44;;;;;;;24.60;12.68;;;3.20;84.40;;;;;;5064605;28;20194;-77
2021/01/04 12:01:10;;;;;;;27.00;13.70;;;3.30;83.80;;;;;;5052100;28;20185;-74
2021/01/04 12:03:36;;;;;;;26.17;12.40;;;3.30;83.30;;;;;;5051657;28;20450;-75
2021/01/04 12:06:02;;;;;;;29.07;13.30;;;3.40;82.10;;;;;;5049521;28;20659;-73
2021/01/04 12:08:28;;;;;;;22.55;11.55;;;3.40;82.20;;;;;;5051075;28;20649;-75
2021/01/04 12:10:53;;;;;;;22.87;11.90;;;3.50;80.80;;;;;;5064766;28;20238;-74
2021/01/04 12:13:19;;;;;;;19.50;11.10;;;3.60;80.00;;;;;;5051098;28;20246;-75
2021/01/04 12:15:45;;;;;;;23.33;11.83;;;3.60;78.60;;;;;;5051035;28;20520;-75
2021/01/04 12:18:11;;;;;;;27.93;13.13;;;3.70;78.30;;;;;;5051325;28;20173;-74
2021/01/04 12:20:36;;;;;;;28.73;13.47;;;3.60;78.70;;;;;;5069088;28;20601;-73
2021/01/04 12:23:02;;;;;;;33.03;13.80;;;3.50;79.90;;;;;;5058430;28;20583;-75
2021/01/04 12:25:28;;;;;;;30.35;14.27;;;3.50;80.80;;;;;;5055599;28;20606;-74
2021/01/04 12:27:54;;;;;;;36.40;15.10;;;3.40;81.20;;;;;;5070986;28;20194;-75
2021/01/04 12:30:20;;;;;;;29.03;13.40;;;3.40;81.50;;;;;;5055976;28;20337;-74
2021/01/04 12:32:46;;;;;;;30.60;13.83;;;3.30;82.20;;;;;;5069555;28;20211;-75
2021/01/04 12:35:12;;;;;;;26.73;15.17;;;3.30;82.50;;;;;;5049668;28;20434;-74
2021/01/04 12:37:38;;;;;;;32.10;15.48;;;3.30;82.50;;;;;;5050496;28;20215;-75
2021/01/04 12:40:11;;;;;;;31.17;14.53;;;3.20;82.50;;;;;;5056542;28;20188;-75
2021/01/04 12:42:37;;;;;;;31.30;14.23;;;3.10;82.80;;;;;;5065374;28;20446;-73
2021/01/04 12:45:08;;;;;;;30.83;12.83;;;3.10;81.20;;;;;;5057383;28;20200;-75
2021/01/04 12:47:34;;;;;;;34.70;15.27;;;3.20;81.80;;;;;;5070742;28;20901;-75
2021/01/04 12:50:00;;;;;;;27.02;13.95;;;3.10;82.40;;;;;;5054778;28;20189;-75
2021/01/04 12:52:26;;;;;;;35.07;15.47;;;3.10;82.20;;;;;;5053120;28;20269;-74
2021/01/04 12:54:51;;;;;;;33.47;14.93;;;3.00;82.80;;;;;;5049126;28;20215;-75
2021/01/04 12:57:18;;;;;;;41.07;16.03;;;3.00;83.00;;;;;;5061087;28;20183;-76
2021/01/04 12:59:44;;;;;;;35.63;14.65;;;3.00;83.00;;;;;;5065193;28;20173;-75
2021/01/04 13:02:12;;;;;;;33.20;15.17;;;3.00;83.00;;;;;;5051355;28;20210;-75
2021/01/04 13:04:42;;;;;;;33.17;13.83;;;3.00;82.20;;;;;;5060945;28;20633;-75
2021/01/04 13:07:09;;;;;;;33.28;15.30;;;3.00;82.10;;;;;;5053491;28;20434;-75
2021/01/04 13:09:35;;;;;;;39.03;15.88;;;3.10;81.50;;;;;;5053594;28;20184;-74
2021/01/04 13:12:02;;;;;;;35.03;16.17;;;3.10;81.50;;;;;;5048789;28;20991;-75
2021/01/04 13:14:28;;;;;;;30.90;14.60;;;3.10;81.80;;;;;;5049550;28;20441;-74
2021/01/04 13:16:56;;;;;;;33.57;15.80;;;3.10;81.90;;;;;;5063389;28;20215;-75
2021/01/04 13:19:27;;;;;;;38.07;15.37;;;3.10;81.90;;;;;;5058517;28;20180;-75
2021/01/04 13:22:00;;;;;;;38.17;16.53;;;3.10;82.50;;;;;;5068084;28;20437;-74